Terminal Aerodrome Forecast
Issued by NWS Chicago, IL

Home | Current Version | Previous Version | Text Only | Print | Product List | Glossary Off
Versions: 1 2 3 4 5 6 7 8 9 10 11 12 13 14 15 16 17 18 19 20 21 22 23 24 25 26 27 28 29 30 31 32 33

000
FTUS43 KLOT 231749
TAFRFD
TAF
KRFD 231749Z 2318/2418 21011KT P6SM SCT100 BKN200
     FM240100 15006KT P6SM BKN100
     FM241100 17005KT P6SM VCSH SCT040 BKN060
     FM241500 16011KT P6SM BKN035 OVC050=

USA.gov is the U.S. government's official web portal to all federal, state and local government web resources and services.